createdAt,value
2019-05-11T00:00:59.043Z,8.93
2019-05-11T00:03:29.806Z,9.47
2019-05-11T00:06:00.581Z,8.90
2019-05-11T00:08:31.284Z,9.27
2019-05-11T00:11:01.932Z,9.17
2019-05-11T00:13:33.045Z,8.90
2019-05-11T00:16:04.087Z,8.77
2019-05-11T00:18:34.852Z,9.37
2019-05-11T00:21:05.839Z,9.70
2019-05-11T00:23:36.885Z,9.53
2019-05-11T00:26:08.642Z,9.20
2019-05-11T00:28:39.655Z,9.10
2019-05-11T00:31:10.347Z,9.53
2019-05-11T00:33:42.169Z,9.40
2019-05-11T00:36:13.195Z,9.17
2019-05-11T00:38:43.864Z,9.00
2019-05-11T00:41:14.967Z,8.80
2019-05-11T00:43:45.648Z,8.23
2019-05-11T00:46:16.314Z,8.97
2019-05-11T00:48:47.011Z,8.60
2019-05-11T00:51:18.019Z,7.83
2019-05-11T00:53:49.053Z,8.17
2019-05-11T00:56:20.098Z,8.60
2019-05-11T00:58:51.105Z,8.67
2019-05-11T01:01:22.100Z,8.20
2019-05-11T01:03:53.016Z,7.73
2019-05-11T01:06:23.729Z,8.70
2019-05-11T01:08:54.370Z,8.00
2019-05-11T01:11:44.407Z,8.10
2019-05-11T01:14:15.073Z,7.93
2019-05-11T01:16:45.754Z,8.13
2019-05-11T01:19:16.789Z,8.53
2019-05-11T01:21:47.483Z,7.97
2019-05-11T01:24:18.546Z,8.40
2019-05-11T01:26:50.091Z,8.20
2019-05-11T01:29:20.943Z,8.47
2019-05-11T01:31:51.976Z,7.97
2019-05-11T01:34:22.675Z,8.73
2019-05-11T01:36:53.732Z,7.93
2019-05-11T01:39:24.468Z,8.53
2019-05-11T01:41:55.135Z,8.83
2019-05-11T01:44:26.248Z,8.50
2019-05-11T01:46:56.918Z,10.73
2019-05-11T01:49:27.640Z,10.17
2019-05-11T01:51:58.305Z,9.97
2019-05-11T01:54:29.007Z,10.47
2019-05-11T01:56:59.700Z,10.43
2019-05-11T01:59:30.419Z,10.20
2019-05-11T02:02:01.391Z,9.73
2019-05-11T02:04:32.066Z,9.47
2019-05-11T02:07:02.775Z,9.70
2019-05-11T02:09:33.764Z,9.60
2019-05-11T02:12:04.494Z,9.47
2019-05-11T02:14:35.167Z,9.40
2019-05-11T02:17:05.853Z,9.10
2019-05-11T02:19:37.225Z,8.57
2019-05-11T02:22:07.909Z,9.13
2019-05-11T02:24:38.883Z,9.30
2019-05-11T02:27:09.561Z,9.27
2019-05-11T02:29:41.586Z,9.43
2019-05-11T02:32:12.932Z,8.83
2019-05-11T02:34:43.965Z,8.83
2019-05-11T02:37:14.710Z,8.80
2019-05-11T02:39:45.419Z,8.60
2019-05-11T02:42:16.501Z,9.17
2019-05-11T02:44:47.224Z,9.10
2019-05-11T02:47:18.284Z,9.10
2019-05-11T02:49:49.013Z,8.63
2019-05-11T02:52:20.517Z,8.60
2019-05-11T02:54:53.939Z,8.80
2019-05-11T02:57:24.936Z,8.90
2019-05-11T02:59:55.884Z,9.03
2019-05-11T03:02:27.938Z,8.83
2019-05-11T03:04:58.663Z,8.53
2019-05-11T03:07:29.314Z,8.97
2019-05-11T03:10:00.030Z,9.50
2019-05-11T03:12:30.671Z,8.97
2019-05-11T03:15:01.349Z,8.60
2019-05-11T03:17:33.877Z,8.23
2019-05-11T03:20:05.889Z,8.80
2019-05-11T03:22:36.899Z,9.10
2019-05-11T03:25:07.729Z,8.93
2019-05-11T03:27:38.408Z,8.50
2019-05-11T03:30:09.792Z,8.90
2019-05-11T03:32:40.795Z,8.83
2019-05-11T03:35:11.761Z,8.73
2019-05-11T03:37:42.439Z,8.97
2019-05-11T03:40:14.317Z,7.97
2019-05-11T03:42:45.071Z,8.90
2019-05-11T03:45:16.278Z,8.97
2019-05-11T03:47:46.974Z,8.87
2019-05-11T03:50:18.444Z,8.50
2019-05-11T03:52:49.435Z,8.30
2019-05-11T03:55:20.118Z,8.07
2019-05-11T03:57:51.332Z,8.27
2019-05-11T04:00:23.146Z,8.03
2019-05-11T04:02:53.787Z,8.10
2019-05-11T04:05:24.765Z,8.17
2019-05-11T04:07:55.802Z,7.70
2019-05-11T04:10:26.839Z,7.80
2019-05-11T04:12:58.801Z,8.10
2019-05-11T04:15:29.476Z,7.53
2019-05-11T04:18:00.170Z,7.93
2019-05-11T04:20:30.833Z,8.00
2019-05-11T04:23:01.515Z,7.70
2019-05-11T04:25:32.940Z,7.60
2019-05-11T04:28:03.614Z,7.47
2019-05-11T04:30:34.318Z,7.27
2019-05-11T04:33:06.000Z,7.20
2019-05-11T04:35:37.123Z,7.27
2019-05-11T04:38:07.786Z,7.67
2019-05-11T04:40:38.561Z,7.57
2019-05-11T04:43:09.627Z,7.87
2019-05-11T04:45:40.418Z,7.80
2019-05-11T04:48:11.141Z,7.40
2019-05-11T04:50:41.956Z,7.63
2019-05-11T04:53:12.623Z,7.13
2019-05-11T04:55:43.292Z,6.90
2019-05-11T04:58:14.078Z,6.53
2019-05-11T05:00:44.743Z,7.43
2019-05-11T05:03:15.443Z,7.53
2019-05-11T05:05:46.441Z,7.03
2019-05-11T05:08:21.226Z,7.20
2019-05-11T05:10:52.401Z,7.50
2019-05-11T05:13:29.569Z,7.43
2019-05-11T05:15:56.859Z,7.90
2019-05-11T05:18:27.854Z,7.57
2019-05-11T05:20:59.589Z,7.80
2019-05-11T05:23:30.325Z,7.87
2019-05-11T05:26:01.324Z,7.70
2019-05-11T05:28:32.019Z,8.00
2019-05-11T05:31:02.681Z,7.47
2019-05-11T05:33:33.695Z,7.93
2019-05-11T05:36:05.192Z,7.97
2019-05-11T05:38:36.220Z,8.17
2019-05-11T05:41:06.929Z,7.10
2019-05-11T05:43:38.058Z,7.83
2019-05-11T05:46:09.123Z,7.33
2019-05-11T05:48:40.155Z,7.80
2019-05-11T05:51:10.842Z,7.90
2019-05-11T05:53:41.910Z,7.60
2019-05-11T05:56:12.659Z,7.70
2019-05-11T05:58:43.348Z,7.83
2019-05-11T06:01:14.025Z,7.80
2019-05-11T06:03:45.014Z,7.67
2019-05-11T06:06:16.090Z,7.47
2019-05-11T06:08:46.782Z,7.70
2019-05-11T06:11:17.859Z,7.53
2019-05-11T06:13:48.893Z,8.00
2019-05-11T06:16:19.880Z,7.90
2019-05-11T06:18:50.635Z,7.50
2019-05-11T06:21:21.293Z,7.87
2019-05-11T06:23:51.996Z,7.20
2019-05-11T06:26:22.660Z,7.77
2019-05-11T06:28:53.712Z,7.60
2019-05-11T06:31:24.405Z,7.20
2019-05-11T06:33:55.151Z,7.40
2019-05-11T06:36:25.822Z,7.47
2019-05-11T06:38:56.513Z,6.50
2019-05-11T06:41:27.491Z,7.00
2019-05-11T06:44:01.806Z,7.33
2019-05-11T06:46:34.702Z,7.00
2019-05-11T06:49:03.594Z,6.97
2019-05-11T06:51:35.528Z,6.70
2019-05-11T06:54:06.204Z,6.70
2019-05-11T06:56:36.873Z,6.77
2019-05-11T06:59:07.545Z,6.90
2019-05-11T07:01:38.385Z,6.83
2019-05-11T07:04:09.395Z,6.73
2019-05-11T07:06:40.266Z,6.67
2019-05-11T07:09:10.914Z,6.60
2019-05-11T07:11:41.929Z,6.40
2019-05-11T07:14:20.503Z,6.00
2019-05-11T07:16:45.572Z,6.03
2019-05-11T07:19:16.666Z,5.93
2019-05-11T07:21:47.572Z,6.40
2019-05-11T07:24:18.580Z,6.10
2019-05-11T07:26:49.251Z,5.70
2019-05-11T07:29:19.911Z,5.60
2019-05-11T07:31:50.851Z,5.23
2019-05-11T07:34:21.511Z,5.00
2019-05-11T07:36:52.475Z,4.40
2019-05-11T07:39:23.150Z,4.80
2019-05-11T07:41:53.828Z,5.47
2019-05-11T07:44:37.629Z,5.00
2019-05-11T07:46:58.731Z,4.83
2019-05-11T07:49:29.856Z,4.30
2019-05-11T07:52:00.519Z,4.03
2019-05-11T07:54:31.208Z,4.57
2019-05-11T07:57:02.501Z,4.40
2019-05-11T07:59:33.411Z,4.20
2019-05-11T08:02:04.348Z,4.13
2019-05-11T08:04:35.010Z,4.40
2019-05-11T08:07:07.722Z,4.77
2019-05-11T08:09:38.516Z,4.80
2019-05-11T08:12:09.434Z,5.50
2019-05-11T08:14:56.578Z,5.40
2019-05-11T08:17:12.859Z,5.10
2019-05-11T08:19:43.543Z,5.23
2019-05-11T08:22:14.681Z,5.43
2019-05-11T08:24:48.005Z,5.37
2019-05-11T08:27:18.785Z,6.40
2019-05-11T08:29:49.516Z,5.63
2019-05-11T08:32:20.454Z,6.03
2019-05-11T08:34:51.211Z,6.50
2019-05-11T08:37:21.900Z,6.30
2019-05-11T08:39:52.573Z,7.47
2019-05-11T08:42:23.232Z,6.30
2019-05-11T08:44:54.624Z,6.70
2019-05-11T08:47:28.224Z,6.37
2019-05-11T08:49:59.061Z,7.03
2019-05-11T08:52:30.271Z,7.00
2019-05-11T08:55:01.198Z,7.43
2019-05-11T08:57:32.267Z,7.67
2019-05-11T09:00:03.037Z,7.10
2019-05-11T09:02:33.742Z,7.90
2019-05-11T09:05:05.088Z,7.30
2019-05-11T09:07:38.196Z,8.47
2019-05-11T09:10:09.284Z,7.67
2019-05-11T09:12:40.383Z,8.43
2019-05-11T09:15:11.293Z,8.70
2019-05-11T09:17:42.103Z,8.67
2019-05-11T09:20:14.470Z,9.70
2019-05-11T09:22:45.445Z,9.27
2019-05-11T09:25:18.331Z,8.50
2019-05-11T09:27:49.549Z,9.30
2019-05-11T09:30:20.376Z,8.27
2019-05-11T09:32:51.207Z,8.07
2019-05-11T09:35:23.285Z,8.67
2019-05-11T09:37:54.059Z,7.73
2019-05-11T09:40:24.783Z,9.17
2019-05-11T09:42:55.785Z,9.10
2019-05-11T09:45:27.823Z,8.50
2019-05-11T09:47:58.731Z,8.67
2019-05-11T09:50:29.486Z,9.30
2019-05-11T09:53:01.520Z,8.10
2019-05-11T09:55:32.465Z,8.30
2019-05-11T09:58:03.498Z,7.73
2019-05-11T10:00:34.776Z,8.90
2019-05-11T10:03:05.463Z,8.70
2019-05-11T10:05:38.317Z,8.97
2019-05-11T10:08:08.881Z,8.40
2019-05-11T10:10:39.865Z,8.37
2019-05-11T10:13:10.982Z,9.90
2019-05-11T10:15:42.007Z,8.70
2019-05-11T10:18:12.708Z,9.60
2019-05-11T10:20:43.457Z,8.43
2019-05-11T10:23:14.165Z,9.07
2019-05-11T10:25:45.155Z,8.63
2019-05-11T10:28:17.908Z,8.50
2019-05-11T10:30:51.276Z,8.43
2019-05-11T10:33:21.938Z,7.83
2019-05-11T10:35:52.639Z,9.60
2019-05-11T10:38:23.289Z,7.07
2019-05-11T10:40:54.257Z,8.50
2019-05-11T10:43:24.909Z,8.93
2019-05-11T10:45:55.844Z,9.93
2019-05-11T10:48:28.202Z,10.60
2019-05-11T10:50:59.012Z,9.40
2019-05-11T10:53:29.687Z,10.03
2019-05-11T10:56:00.801Z,8.57
2019-05-11T10:58:31.841Z,9.47
2019-05-11T11:01:02.828Z,8.83
2019-05-11T11:03:34.128Z,8.60
2019-05-11T11:06:04.817Z,7.80
2019-05-11T11:08:35.482Z,8.50
2019-05-11T11:11:08.142Z,8.43
2019-05-11T11:13:39.762Z,7.73
2019-05-11T11:16:10.436Z,7.83
2019-05-11T11:18:41.482Z,8.30
2019-05-11T11:21:12.412Z,7.00
2019-05-11T11:23:43.459Z,6.20
2019-05-11T11:26:14.394Z,5.57
2019-05-11T11:28:47.809Z,6.17
2019-05-11T11:31:18.919Z,6.87
2019-05-11T11:33:49.670Z,6.27
2019-05-11T11:36:20.335Z,6.30
2019-05-11T11:38:51.345Z,6.03
2019-05-11T11:41:22.610Z,6.63
2019-05-11T11:43:53.634Z,6.17
2019-05-11T11:46:24.697Z,6.73
2019-05-11T11:48:57.953Z,6.20
2019-05-11T11:51:28.688Z,6.03
2019-05-11T11:53:59.574Z,6.67
2019-05-11T11:56:30.573Z,7.47
2019-05-11T11:59:01.221Z,7.10
2019-05-11T12:01:31.915Z,7.33
2019-05-11T12:04:02.859Z,7.27
2019-05-11T12:06:33.525Z,7.13
2019-05-11T12:09:08.850Z,7.73
2019-05-11T12:11:39.463Z,7.77
2019-05-11T12:14:10.599Z,7.30
2019-05-11T12:16:41.271Z,6.87
2019-05-11T12:19:12.309Z,7.40
2019-05-11T12:21:43.979Z,7.60
2019-05-11T12:24:14.975Z,7.50
2019-05-11T12:26:48.080Z,7.20
2019-05-11T12:29:18.971Z,8.17
2019-05-11T12:31:49.806Z,8.60
2019-05-11T12:34:20.459Z,9.90
2019-05-11T12:36:52.759Z,9.97
2019-05-11T12:39:23.437Z,9.53
2019-05-11T12:41:54.121Z,9.33
2019-05-11T12:44:24.789Z,9.30
2019-05-11T12:46:58.160Z,9.67
2019-05-11T12:49:29.045Z,9.33
2019-05-11T12:52:00.237Z,9.67
2019-05-11T12:54:33.907Z,10.40
2019-05-11T12:57:03.651Z,10.23
2019-05-11T12:59:34.667Z,23.90
2019-05-11T13:02:08.158Z,11.03
2019-05-11T13:04:40.981Z,10.73
2019-05-11T13:07:11.623Z,11.23
2019-05-11T13:09:43.046Z,11.03
2019-05-11T13:12:13.707Z,10.20
2019-05-11T13:14:44.690Z,10.80
2019-05-11T13:17:15.756Z,10.63
2019-05-11T13:19:47.968Z,12.30
2019-05-11T13:22:19.227Z,12.20
2019-05-11T13:24:50.408Z,12.57
2019-05-11T13:27:21.505Z,13.50
2019-05-11T13:29:52.684Z,14.00
2019-05-11T13:32:24.826Z,14.50
2019-05-11T13:34:55.606Z,15.40
2019-05-11T13:37:28.276Z,14.17
2019-05-11T13:39:59.228Z,15.17
2019-05-11T13:42:30.317Z,15.07
2019-05-11T13:45:00.976Z,16.27
2019-05-11T13:47:32.033Z,13.47
2019-05-11T13:50:02.962Z,14.07
2019-05-11T13:52:34.011Z,14.67
2019-05-11T13:55:07.797Z,14.57
2019-05-11T13:57:39.899Z,15.70
2019-05-11T14:00:11.285Z,15.63
2019-05-11T14:02:42.348Z,16.03
2019-05-11T14:05:13.382Z,16.73
2019-05-11T14:07:48.267Z,18.00
2019-05-11T14:10:19.384Z,16.30
2019-05-11T14:12:50.512Z,18.30
2019-05-11T14:15:21.515Z,22.00
2019-05-11T14:20:25.255Z,37.70
2019-05-11T14:22:58.278Z,66.83
2019-05-11T14:25:29.818Z,15.80
2019-05-11T14:28:00.696Z,15.43
2019-05-11T14:30:31.690Z,14.23
2019-05-11T14:32:21.224Z,21.47
2019-05-11T14:33:02.720Z,15.10
2019-05-11T14:38:40.682Z,15.70
2019-05-11T14:41:11.909Z,16.13
2019-05-11T14:43:42.618Z,16.60
2019-05-11T14:46:13.665Z,15.57
2019-05-11T14:48:44.769Z,16.73
2019-05-11T14:51:18.040Z,15.63
2019-05-11T14:53:50.296Z,17.40
2019-05-11T14:56:21.374Z,15.43
2019-05-11T14:58:52.306Z,15.00
2019-05-11T15:01:23.479Z,15.10
2019-05-11T15:03:55.340Z,15.90
2019-05-11T15:06:27.919Z,14.50
2019-05-11T15:08:58.764Z,14.43
2019-05-11T15:11:29.838Z,14.93
2019-05-11T15:14:00.671Z,15.90
2019-05-11T15:16:31.645Z,15.23
2019-05-11T15:19:03.980Z,14.53
2019-05-11T15:21:35.647Z,15.00
2019-05-11T15:24:09.108Z,14.43
2019-05-11T15:26:40.459Z,16.10
2019-05-11T15:29:11.569Z,14.80
2019-05-11T15:31:42.516Z,13.57
2019-05-11T15:34:13.262Z,16.10
2019-05-11T15:36:44.302Z,15.57
2019-05-11T15:39:15.320Z,16.30
2019-05-11T15:41:47.927Z,15.57
2019-05-11T15:44:18.552Z,16.17
2019-05-11T15:46:49.316Z,16.37
2019-05-11T15:49:20.067Z,16.37
2019-05-11T15:51:51.215Z,16.13
2019-05-11T15:54:21.900Z,14.17
2019-05-11T15:56:52.862Z,14.67
2019-05-11T15:59:24.016Z,14.83
2019-05-11T16:01:54.816Z,17.27
2019-05-11T16:04:27.979Z,16.57
2019-05-11T16:07:00.150Z,14.70
2019-05-11T16:09:32.699Z,16.03
2019-05-11T16:12:03.419Z,14.97
2019-05-11T16:14:34.106Z,14.87
2019-05-11T16:17:04.814Z,15.57
2019-05-11T16:19:35.609Z,15.63
2019-05-11T16:22:10.064Z,14.53
2019-05-11T16:24:40.853Z,15.30
2019-05-11T16:27:12.032Z,14.23
2019-05-11T16:29:43.038Z,14.40
2019-05-11T16:32:14.071Z,16.27
2019-05-11T16:34:44.838Z,14.27
2019-05-11T16:37:18.227Z,15.70
2019-05-11T16:39:49.520Z,15.07
2019-05-11T16:42:20.693Z,14.43
2019-05-11T16:44:51.829Z,17.17
2019-05-11T16:47:22.502Z,14.37
2019-05-11T16:49:53.178Z,13.77
2019-05-11T16:52:24.286Z,18.90
2019-05-11T16:54:54.996Z,16.90
2019-05-11T16:57:26.022Z,15.23
2019-05-11T16:59:58.456Z,12.93
2019-05-11T17:02:30.456Z,14.13
2019-05-11T17:05:01.933Z,15.87
2019-05-11T17:07:32.950Z,14.83
2019-05-11T17:10:05.543Z,13.80
2019-05-11T17:12:38.555Z,14.03
2019-05-11T17:15:10.917Z,17.07
2019-05-11T17:17:41.944Z,12.73
2019-05-11T17:20:13.382Z,14.47
2019-05-11T17:22:44.720Z,24.67
2019-05-11T17:25:15.725Z,13.93
2019-05-11T17:27:48.644Z,14.30
2019-05-11T17:30:21.223Z,12.83
2019-05-11T17:32:53.404Z,14.47
2019-05-11T17:35:24.063Z,13.20
2019-05-11T17:37:55.064Z,15.53
2019-05-11T17:40:28.343Z,13.67
2019-05-11T17:43:00.027Z,15.67
2019-05-11T17:45:31.025Z,13.63
2019-05-11T17:48:01.734Z,13.70
2019-05-11T17:50:32.415Z,15.00
2019-05-11T17:53:03.561Z,14.93
2019-05-11T17:55:34.718Z,13.70
2019-05-11T17:58:08.523Z,12.07
2019-05-11T18:00:39.410Z,12.47
2019-05-11T18:03:11.500Z,11.40
2019-05-11T18:05:42.741Z,11.47
2019-05-11T18:08:14.343Z,12.23
2019-05-11T18:10:47.952Z,12.80
2019-05-11T18:13:19.799Z,13.90
2019-05-11T18:15:51.337Z,14.03
2019-05-11T18:18:24.007Z,14.57
2019-05-11T18:20:54.467Z,15.80
2019-05-11T18:23:25.254Z,15.60
2019-05-11T18:25:56.277Z,16.43
2019-05-11T18:28:28.996Z,17.00
2019-05-11T18:30:59.823Z,15.60
2019-05-11T18:33:30.868Z,16.80
2019-05-11T18:36:01.905Z,17.10
2019-05-11T18:38:32.611Z,16.40
2019-05-11T18:41:03.494Z,15.87
2019-05-11T18:43:34.388Z,16.60
2019-05-11T18:46:08.341Z,16.53
2019-05-11T18:48:39.967Z,16.17
2019-05-11T18:51:10.648Z,15.97
2019-05-11T18:53:41.871Z,16.27
2019-05-11T18:56:13.169Z,14.73
2019-05-11T18:58:43.851Z,16.50
2019-05-11T19:01:14.843Z,16.47
2019-05-11T19:03:47.849Z,17.40
2019-05-11T19:06:19.064Z,17.53
2019-05-11T19:08:50.096Z,14.20
2019-05-11T19:11:21.603Z,14.97
2019-05-11T19:13:52.301Z,16.20
2019-05-11T19:16:23.330Z,14.40
2019-05-11T19:18:54.155Z,15.23
2019-05-11T19:21:24.908Z,14.27
2019-05-11T19:23:58.011Z,13.07
2019-05-11T19:26:28.602Z,12.17
2019-05-11T19:29:00.773Z,12.00
2019-05-11T19:31:32.701Z,11.17
2019-05-11T19:34:03.681Z,9.47
2019-05-11T19:36:34.721Z,9.10
2019-05-11T19:39:08.910Z,10.10
2019-05-11T19:41:40.812Z,10.43
2019-05-11T19:44:12.042Z,10.03
2019-05-11T19:46:42.724Z,10.47
2019-05-11T19:49:13.710Z,10.13
2019-05-11T19:51:48.525Z,9.43
2019-05-11T19:54:18.833Z,9.67
2019-05-11T19:56:52.295Z,9.03
2019-05-11T19:59:22.620Z,9.83
2019-05-11T20:01:53.709Z,8.40
2019-05-11T20:04:25.057Z,9.70
2019-05-11T20:06:58.100Z,10.50
2019-05-11T20:09:28.489Z,12.63
2019-05-11T20:11:59.196Z,22.07
2019-05-11T20:14:30.269Z,22.63
2019-05-11T20:17:01.319Z,17.63
2019-05-11T20:19:32.338Z,14.33
2019-05-11T20:22:03.801Z,10.97
2019-05-11T20:24:35.877Z,8.43
2019-05-11T20:27:08.027Z,8.53
2019-05-11T20:29:39.028Z,8.80
2019-05-11T20:32:09.756Z,8.80
2019-05-11T20:34:40.531Z,8.73
2019-05-11T20:37:11.543Z,8.73
2019-05-11T20:39:42.605Z,9.70
2019-05-11T20:42:13.658Z,8.07
2019-05-11T20:44:44.739Z,7.43
2019-05-11T20:47:17.411Z,8.33
2019-05-11T20:49:48.288Z,7.77
2019-05-11T20:52:20.368Z,8.87
2019-05-11T20:54:51.827Z,9.07
2019-05-11T20:57:24.210Z,9.57
2019-05-11T20:59:54.909Z,10.17
2019-05-11T21:02:28.813Z,10.60
2019-05-11T21:05:00.446Z,11.57
2019-05-11T21:07:31.171Z,11.47
2019-05-11T21:10:02.350Z,11.13
2019-05-11T21:12:33.407Z,12.63
2019-05-11T21:15:06.773Z,13.20
2019-05-11T21:17:38.446Z,12.83
2019-05-11T21:20:11.237Z,13.07
2019-05-11T21:22:43.286Z,13.93
2019-05-11T21:25:14.620Z,13.30
2019-05-11T21:27:45.283Z,13.40
2019-05-11T21:30:18.512Z,13.23
2019-05-11T21:32:49.414Z,13.70
2019-05-11T21:35:21.186Z,13.20
2019-05-11T21:37:51.869Z,13.27
2019-05-11T21:40:23.151Z,14.57
2019-05-11T21:42:55.079Z,15.87
2019-05-11T21:45:25.750Z,15.90
2019-05-11T21:47:57.973Z,14.90
2019-05-11T21:50:48.149Z,14.83
2019-05-11T21:53:19.256Z,19.60
2019-05-11T21:55:50.254Z,20.93
2019-05-11T21:58:20.962Z,16.17
2019-05-11T22:00:51.935Z,15.30
2019-05-11T22:03:24.263Z,15.83
2019-05-11T22:05:55.217Z,14.67
2019-05-11T22:08:28.217Z,14.70
2019-05-11T22:11:00.012Z,13.97
2019-05-11T22:13:31.221Z,15.00
2019-05-11T22:16:02.273Z,14.70
2019-05-11T22:18:32.956Z,15.73
2019-05-11T22:21:03.935Z,13.93
2019-05-11T22:23:35.223Z,16.23
2019-05-11T22:26:07.769Z,15.77
2019-05-11T22:28:39.312Z,17.17
2019-05-11T22:31:10.213Z,16.67
2019-05-11T22:33:40.918Z,16.20
2019-05-11T22:36:11.855Z,16.77
2019-05-11T22:38:42.595Z,15.20
2019-05-11T22:41:13.721Z,15.07
2019-05-11T22:43:44.432Z,15.30
2019-05-11T22:46:17.746Z,15.30
2019-05-11T22:48:49.107Z,15.20
2019-05-11T22:51:20.154Z,14.93
2019-05-11T22:53:50.869Z,14.87
2019-05-11T22:56:21.564Z,13.00
2019-05-11T22:58:52.246Z,9.27
2019-05-11T23:01:23.251Z,9.90
2019-05-11T23:03:55.316Z,9.30
2019-05-11T23:06:26.011Z,9.40
2019-05-11T23:08:58.705Z,9.33
2019-05-11T23:11:29.890Z,9.10
2019-05-11T23:14:00.891Z,8.97
2019-05-11T23:16:31.629Z,8.17
2019-05-11T23:19:02.690Z,7.60
2019-05-11T23:21:33.639Z,7.17
2019-05-11T23:24:07.682Z,6.33
2019-05-11T23:26:38.739Z,6.30
2019-05-11T23:29:09.549Z,6.43
2019-05-11T23:31:40.552Z,7.17
2019-05-11T23:34:11.502Z,6.30
2019-05-11T23:36:42.182Z,7.13
2019-05-11T23:39:12.846Z,7.17
2019-05-11T23:41:43.670Z,7.67
2019-05-11T23:44:14.644Z,7.00
2019-05-11T23:46:47.708Z,7.47
2019-05-11T23:49:18.093Z,6.37
2019-05-11T23:51:49.287Z,6.67
2019-05-11T23:54:19.954Z,6.60
2019-05-11T23:56:52.175Z,6.50
2019-05-11T23:59:22.836Z,5.30
